Time,TemperatureF,DewpointF,PressureIn,WindDirection,WindDirectionDegrees,WindSpeedMPH,WindSpeedGustMPH,Humidity,HourlyPrecipIn,Conditions,Clouds,dailyrainin,SoftwareType,DateUTC
2013-01-23 00:05:00,30.3,27.4,30.22,NW,315,0.0,0.0,89,0.00,,,0.00,Wunderground v.1.15,2013-01-23 05:05:00,
2013-01-23 00:10:00,30.3,27.7,30.22,NW,315,0.0,0.0,90,0.00,,,0.00,Wunderground v.1.15,2013-01-23 05:10:00,
2013-01-23 00:15:00,30.3,27.7,30.22,NW,315,0.0,0.0,90,0.00,,,0.00,Wunderground v.1.15,2013-01-23 05:15:00,
2013-01-23 00:25:00,30.3,28.0,30.22,NW,315,0.0,0.0,91,0.00,,,0.00,Wunderground v.1.15,2013-01-23 05:25:00,
2013-01-23 00:30:00,30.2,27.9,30.22,NW,315,0.0,0.0,91,0.00,,,0.00,Wunderground v.1.15,2013-01-23 05:30:00,
2013-01-23 00:40:00,30.0,27.4,30.21,NW,315,0.0,0.0,90,0.00,,,0.00,Wunderground v.1.15,2013-01-23 05:40:00,
2013-01-23 00:45:00,29.9,27.3,30.22,NW,315,0.0,0.0,90,0.00,,,0.00,Wunderground v.1.15,2013-01-23 05:45:00,
2013-01-23 00:55:00,29.6,27.0,30.21,NW,315,0.0,0.0,90,0.00,,,0.00,Wunderground v.1.15,2013-01-23 05:55:00,
2013-01-23 01:05:00,29.5,27.2,30.21,NW,315,0.0,0.0,91,0.00,,,0.00,Wunderground v.1.15,2013-01-23 06:05:00,
2013-01-23 01:15:00,29.5,27.5,30.21,NW,315,0.0,0.0,92,0.00,,,0.00,Wunderground v.1.15,2013-01-23 06:15:00,
2013-01-23 01:25:00,29.5,27.5,30.21,NW,315,0.0,0.0,92,0.00,,,0.00,Wunderground v.1.15,2013-01-23 06:25:00,
2013-01-23 01:30:00,29.5,27.5,30.22,NW,315,0.0,0.0,92,0.00,,,0.00,Wunderground v.1.15,2013-01-23 06:30:00,
2013-01-23 01:40:00,29.5,27.5,30.21,NW,315,0.0,0.0,92,0.00,,,0.00,Wunderground v.1.15,2013-01-23 06:40:00,
2013-01-23 01:45:00,29.4,27.4,30.21,NW,315,0.0,0.0,92,0.00,,,0.00,Wunderground v.1.15,2013-01-23 06:45:00,
2013-01-23 01:55:00,29.2,27.2,30.22,NW,315,0.0,0.0,92,0.00,,,0.00,Wunderground v.1.15,2013-01-23 06:55:00,
2013-01-23 02:05:00,29.3,27.3,30.22,NW,315,0.0,0.0,92,0.00,,,0.00,Wunderground v.1.15,2013-01-23 07:05:00,
2013-01-23 02:15:00,29.2,27.2,30.22,NW,315,0.0,0.0,92,0.00,,,0.00,Wunderground v.1.15,2013-01-23 07:15:00,
2013-01-23 02:20:00,29.1,27.1,30.23,NW,315,0.0,0.0,92,0.00,,,0.00,Wunderground v.1.15,2013-01-23 07:20:00,
2013-01-23 02:30:00,29.1,27.3,30.23,NW,315,0.0,0.0,93,0.00,,,0.00,Wunderground v.1.15,2013-01-23 07:30:00,
2013-01-23 02:40:00,28.9,26.9,30.23,NW,315,0.0,0.0,92,0.00,,,0.00,Wunderground v.1.15,2013-01-23 07:40:00,
2013-01-23 02:45:00,28.8,26.8,30.23,NW,315,0.0,0.0,92,0.00,,,0.00,Wunderground v.1.15,2013-01-23 07:45:00,
2013-01-23 02:55:00,28.6,26.6,30.24,NW,315,0.0,0.0,92,0.00,,,0.00,Wunderground v.1.15,2013-01-23 07:55:00,
2013-01-23 03:00:00,28.6,26.6,30.23,NW,315,0.0,0.0,92,0.00,,,0.00,Wunderground v.1.15,2013-01-23 08:00:00,
2013-01-23 03:10:00,28.6,26.6,30.23,NW,315,0.0,0.0,92,0.00,,,0.00,Wunderground v.1.15,2013-01-23 08:10:00,
2013-01-23 03:20:00,28.6,26.3,30.24,NW,315,0.0,0.0,91,0.00,,,0.00,Wunderground v.1.15,2013-01-23 08:20:00,
2013-01-23 03:25:00,28.7,25.9,30.24,NW,315,0.0,0.0,89,0.00,,,0.00,Wunderground v.1.15,2013-01-23 08:25:00,
2013-01-23 03:35:00,28.7,24.5,30.24,NW,315,0.0,0.0,84,0.00,,,0.00,Wunderground v.1.15,2013-01-23 08:35:00,
2013-01-23 03:40:00,28.9,24.1,30.24,NW,315,0.0,0.0,82,0.00,,,0.00,Wunderground v.1.15,2013-01-23 08:40:00,
2013-01-23 03:50:00,29.2,22.9,30.25,NW,313,0.0,0.0,77,0.00,,,0.00,Wunderground v.1.15,2013-01-23 08:50:00,
2013-01-23 04:00:00,29.5,22.2,30.25,NW,313,0.0,0.0,74,0.00,,,0.00,Wunderground v.1.15,2013-01-23 09:00:00,
2013-01-23 04:10:00,29.5,21.3,30.25,NW,313,0.0,0.0,71,0.00,,,0.00,Wunderground v.1.15,2013-01-23 09:10:00,
2013-01-23 04:20:00,29.4,20.8,30.24,NW,313,0.0,0.0,70,0.00,,,0.00,Wunderground v.1.15,2013-01-23 09:20:00,
2013-01-23 04:30:00,29.2,19.9,30.24,NW,313,0.0,0.0,68,0.00,,,0.00,Wunderground v.1.15,2013-01-23 09:30:00,
2013-01-23 04:40:00,29.0,19.4,30.25,NW,313,0.0,0.0,67,0.00,,,0.00,Wunderground v.1.15,2013-01-23 09:40:00,
2013-01-23 04:45:00,28.9,19.0,30.25,NW,313,0.0,1.0,66,0.00,,,0.00,Wunderground v.1.15,2013-01-23 09:45:00,
2013-01-23 04:55:00,28.8,17.8,30.25,NW,318,0.0,1.0,63,0.00,,,0.00,Wunderground v.1.15,2013-01-23 09:55:00,
2013-01-23 05:05:00,28.7,16.2,30.25,NNW,346,1.0,1.0,59,0.00,,,0.00,Wunderground v.1.15,2013-01-23 10:05:00,
2013-01-23 05:15:00,28.5,15.2,30.26,West,277,1.0,2.0,57,0.00,,,0.00,Wunderground v.1.15,2013-01-23 10:15:00,
2013-01-23 05:25:00,28.5,14.4,30.26,ESE,118,1.0,1.0,55,0.00,,,0.00,Wunderground v.1.15,2013-01-23 10:25:00,
2013-01-23 05:30:00,28.4,13.9,30.26,South,173,1.0,1.0,54,0.00,,,0.00,Wunderground v.1.15,2013-01-23 10:30:00,
2013-01-23 05:40:00,28.3,13.3,30.27,South,173,0.0,0.0,53,0.00,,,0.00,Wunderground v.1.15,2013-01-23 10:40:00,
2013-01-23 05:50:00,28.1,13.1,30.27,SSE,166,0.0,0.0,53,0.00,,,0.00,Wunderground v.1.15,2013-01-23 10:50:00,
2013-01-23 06:00:00,28.1,12.7,30.28,South,174,0.0,1.0,52,0.00,,,0.00,Wunderground v.1.15,2013-01-23 11:00:00,
2013-01-23 06:10:00,28.1,12.7,30.28,South,174,0.0,0.0,52,0.00,,,0.00,Wunderground v.1.15,2013-01-23 11:10:00,
2013-01-23 06:15:00,28.0,12.2,30.28,South,174,0.0,0.0,51,0.00,,,0.00,Wunderground v.1.15,2013-01-23 11:15:00,
2013-01-23 06:20:00,28.0,11.7,30.28,South,174,0.0,0.0,50,0.00,,,0.00,Wunderground v.1.15,2013-01-23 11:20:00,
2013-01-23 06:30:00,27.8,12.0,30.29,NW,319,0.0,0.0,51,0.00,,,0.00,Wunderground v.1.15,2013-01-23 11:30:00,
2013-01-23 06:35:00,27.8,11.5,30.29,NW,319,0.0,0.0,50,0.00,,,0.00,Wunderground v.1.15,2013-01-23 11:35:00,
2013-01-23 06:45:00,27.7,11.0,30.30,NW,319,0.0,0.0,49,0.00,,,0.00,Wunderground v.1.15,2013-01-23 11:45:00,
2013-01-23 06:55:00,27.7,11.0,30.30,NNE,25,0.0,1.0,49,0.00,,,0.00,Wunderground v.1.15,2013-01-23 11:55:00,
2013-01-23 07:00:00,27.7,11.0,30.30,NNE,25,0.0,0.0,49,0.00,,,0.00,Wunderground v.1.15,2013-01-23 12:00:00,
2013-01-23 07:10:00,27.6,10.9,30.30,NNE,25,0.0,0.0,49,0.00,,,0.00,Wunderground v.1.15,2013-01-23 12:10:00,
2013-01-23 07:20:00,27.5,10.8,30.31,NNE,25,0.0,1.0,49,0.00,,,0.00,Wunderground v.1.15,2013-01-23 12:20:00,
2013-01-23 07:30:00,27.5,10.4,30.31,North,11,0.0,0.0,48,0.00,,,0.00,Wunderground v.1.15,2013-01-23 12:30:00,
2013-01-23 07:40:00,27.5,10.4,30.31,North,11,0.0,0.0,48,0.00,,,0.00,Wunderground v.1.15,2013-01-23 12:40:00,
2013-01-23 07:50:00,27.9,10.2,30.32,NNE,30,0.0,1.0,47,0.00,,,0.00,Wunderground v.1.15,2013-01-23 12:50:00,
2013-01-23 08:00:00,28.3,9.6,30.32,ENE,64,0.0,0.0,45,0.00,,,0.00,Wunderground v.1.15,2013-01-23 13:00:00,
2013-01-23 08:10:00,28.8,10.1,30.32,ENE,68,0.0,1.0,45,0.00,,,0.00,Wunderground v.1.15,2013-01-23 13:10:00,
2013-01-23 08:20:00,29.5,10.2,30.32,ENE,70,1.0,1.0,44,0.00,,,0.00,Wunderground v.1.15,2013-01-23 13:20:00,
2013-01-23 08:30:00,30.1,10.3,30.32,ENE,61,1.0,1.0,43,0.00,,,0.00,Wunderground v.1.15,2013-01-23 13:30:00,
2013-01-23 08:40:00,31.2,9.6,30.33,NNE,31,1.0,1.0,40,0.00,,,0.00,Wunderground v.1.15,2013-01-23 13:40:00,
2013-01-23 08:50:00,32.5,10.8,30.33,East,90,1.0,1.0,40,0.00,,,0.00,Wunderground v.1.15,2013-01-23 13:50:00,
2013-01-23 09:00:00,34.2,10.0,30.33,NNW,333,1.0,1.0,36,0.00,,,0.00,Wunderground v.1.15,2013-01-23 14:00:00,
2013-01-23 09:05:00,34.6,11.0,30.33,NNW,333,1.0,1.0,37,0.00,,,0.00,Wunderground v.1.15,2013-01-23 14:05:00,
2013-01-23 09:15:00,35.4,9.8,30.34,ENE,77,1.0,1.0,34,0.00,,,0.00,Wunderground v.1.15,2013-01-23 14:15:00,
2013-01-23 09:25:00,36.0,10.3,30.34,NE,41,1.0,1.0,34,0.00,,,0.00,Wunderground v.1.15,2013-01-23 14:25:00,
2013-01-23 09:30:00,36.2,9.1,30.34,East,88,1.0,1.0,32,0.00,,,0.00,Wunderground v.1.15,2013-01-23 14:30:00,
2013-01-23 09:40:00,36.7,10.9,30.35,ENE,72,1.0,2.0,34,0.00,,,0.00,Wunderground v.1.15,2013-01-23 14:40:00,
2013-01-23 09:50:00,37.3,10.1,30.35,West,277,1.0,2.0,32,0.00,,,0.00,Wunderground v.1.15,2013-01-23 14:50:00,
2013-01-23 10:00:00,37.8,11.2,30.35,ENE,75,1.0,1.0,33,0.00,,,0.00,Wunderground v.1.15,2013-01-23 15:00:00,
2013-01-23 10:05:00,38.2,11.6,30.35,West,279,1.0,2.0,33,0.00,,,0.00,Wunderground v.1.15,2013-01-23 15:05:00,
2013-01-23 10:15:00,37.9,10.6,30.35,NW,306,2.0,3.0,32,0.00,,,0.00,Wunderground v.1.15,2013-01-23 15:15:00,
2013-01-23 10:25:00,38.7,9.9,30.35,East,82,2.0,2.0,30,0.00,,,0.00,Wunderground v.1.15,2013-01-23 15:25:00,
2013-01-23 10:35:00,39.0,10.1,30.35,WSW,257,1.0,2.0,30,0.00,,,0.00,Wunderground v.1.15,2013-01-23 15:35:00,
2013-01-23 10:45:00,38.9,9.3,30.35,West,275,2.0,2.0,29,0.00,,,0.00,Wunderground v.1.15,2013-01-23 15:45:00,
2013-01-23 10:55:00,39.9,10.2,30.35,ESE,110,1.0,3.0,29,0.00,,,0.00,Wunderground v.1.15,2013-01-23 15:55:00,
2013-01-23 11:00:00,40.0,12.5,30.35,West,259,1.0,1.0,32,0.00,,,0.00,Wunderground v.1.15,2013-01-23 16:00:00,
2013-01-23 11:10:00,40.0,9.5,30.34,WNW,302,2.0,2.0,28,0.00,,,0.00,Wunderground v.1.15,2013-01-23 16:10:00,
2013-01-23 11:20:00,41.2,10.5,30.34,East,82,2.0,2.0,28,0.00,,,0.00,Wunderground v.1.15,2013-01-23 16:20:00,
2013-01-23 11:30:00,41.4,9.9,30.33,WSW,248,2.0,2.0,27,0.00,,,0.00,Wunderground v.1.15,2013-01-23 16:30:00,
2013-01-23 11:35:00,41.2,8.8,30.33,East,80,2.0,2.0,26,0.00,,,0.00,Wunderground v.1.15,2013-01-23 16:35:00,
2013-01-23 11:45:00,42.3,10.6,30.33,North,360,2.0,3.0,27,0.00,,,0.00,Wunderground v.1.15,2013-01-23 16:45:00,
2013-01-23 11:55:00,43.2,9.7,30.32,NNE,25,2.0,4.0,25,0.00,,,0.00,Wunderground v.1.15,2013-01-23 16:55:00,
2013-01-23 12:00:00,43.0,10.4,30.32,NW,310,2.0,2.0,26,0.00,,,0.00,Wunderground v.1.15,2013-01-23 17:00:00,
2013-01-23 12:10:00,42.8,10.2,30.32,NW,318,2.0,2.0,26,0.00,,,0.00,Wunderground v.1.15,2013-01-23 17:10:00,
2013-01-23 12:20:00,44.3,11.5,30.31,West,264,1.0,3.0,26,0.00,,,0.00,Wunderground v.1.15,2013-01-23 17:20:00,
2013-01-23 12:25:00,44.6,10.9,30.31,North,355,1.0,3.0,25,0.00,,,0.00,Wunderground v.1.15,2013-01-23 17:25:00,
2013-01-23 12:35:00,44.8,10.1,30.30,NW,311,1.0,2.0,24,0.00,,,0.00,Wunderground v.1.15,2013-01-23 17:35:00,
2013-01-23 12:40:00,45.4,9.7,30.30,North,11,1.0,2.0,23,0.00,,,0.00,Wunderground v.1.15,2013-01-23 17:40:00,
2013-01-23 12:50:00,45.4,8.7,30.30,West,272,3.0,3.0,22,0.00,,,0.00,Wunderground v.1.15,2013-01-23 17:50:00,
2013-01-23 13:00:00,45.0,9.4,30.29,West,280,2.0,3.0,23,0.00,,,0.00,Wunderground v.1.15,2013-01-23 18:00:00,
2013-01-23 13:10:00,45.4,9.7,30.28,West,277,2.0,2.0,23,0.00,,,0.00,Wunderground v.1.15,2013-01-23 18:10:00,
2013-01-23 13:20:00,46.1,11.2,30.27,WNW,299,2.0,2.0,24,0.00,,,0.00,Wunderground v.1.15,2013-01-23 18:20:00,
2013-01-23 13:30:00,45.9,16.2,30.27,ESE,106,2.0,4.0,30,0.00,,,0.00,Wunderground v.1.15,2013-01-23 18:30:00,
2013-01-23 13:35:00,45.0,15.4,30.26,ESE,111,3.0,4.0,30,0.00,,,0.00,Wunderground v.1.15,2013-01-23 18:35:00,
2013-01-23 13:45:00,44.2,16.2,30.26,ESE,120,3.0,4.0,32,0.00,,,0.00,Wunderground v.1.15,2013-01-23 18:45:00,
2013-01-23 13:55:00,44.4,15.6,30.25,ESE,121,2.0,7.0,31,0.00,,,0.00,Wunderground v.1.15,2013-01-23 18:55:00,
2013-01-23 14:05:00,44.1,16.1,30.25,NE,48,4.0,4.0,32,0.00,,,0.00,Wunderground v.1.15,2013-01-23 19:05:00,
2013-01-23 14:15:00,45.2,16.3,30.24,SSE,158,3.0,3.0,31,0.00,,,0.00,Wunderground v.1.15,2013-01-23 19:15:00,
2013-01-23 14:25:00,45.0,17.6,30.24,East,101,3.0,4.0,33,0.00,,,0.00,Wunderground v.1.15,2013-01-23 19:25:00,
2013-01-23 14:35:00,44.2,16.9,30.24,SE,126,5.0,5.0,33,0.00,,,0.00,Wunderground v.1.15,2013-01-23 19:35:00,
2013-01-23 14:45:00,44.7,17.3,30.23,ESE,113,3.0,4.0,33,0.00,,,0.00,Wunderground v.1.15,2013-01-23 19:45:00,
2013-01-23 14:55:00,44.9,17.5,30.23,SSE,164,3.0,4.0,33,0.00,,,0.00,Wunderground v.1.15,2013-01-23 19:55:00,
2013-01-23 15:05:00,45.1,17.7,30.22,East,97,3.0,3.0,33,0.00,,,0.00,Wunderground v.1.15,2013-01-23 20:05:00,
2013-01-23 15:15:00,45.0,19.0,30.22,SE,127,4.0,5.0,35,0.00,,,0.00,Wunderground v.1.15,2013-01-23 20:15:00,
2013-01-23 15:25:00,45.1,18.4,30.22,South,173,3.0,3.0,34,0.00,,,0.00,Wunderground v.1.15,2013-01-23 20:25:00,
2013-01-23 15:35:00,45.1,19.0,30.22,South,172,3.0,5.0,35,0.00,,,0.00,Wunderground v.1.15,2013-01-23 20:35:00,
2013-01-23 15:45:00,45.2,18.5,30.23,SE,127,3.0,3.0,34,0.00,,,0.00,Wunderground v.1.15,2013-01-23 20:45:00,
2013-01-23 15:55:00,45.1,18.4,30.23,ESE,106,3.0,3.0,34,0.00,,,0.00,Wunderground v.1.15,2013-01-23 20:55:00,
2013-01-23 16:00:00,45.0,19.0,30.23,SE,135,3.0,3.0,35,0.00,,,0.00,Wunderground v.1.15,2013-01-23 21:00:00,
2013-01-23 16:10:00,44.7,20.0,30.23,ENE,71,3.0,3.0,37,0.00,,,0.00,Wunderground v.1.15,2013-01-23 21:10:00,
2013-01-23 16:20:00,44.5,20.4,30.23,East,86,3.0,3.0,38,0.00,,,0.00,Wunderground v.1.15,2013-01-23 21:20:00,
2013-01-23 16:30:00,44.0,19.4,30.22,SE,127,3.0,3.0,37,0.00,,,0.00,Wunderground v.1.15,2013-01-23 21:30:00,
2013-01-23 16:40:00,43.6,20.2,30.23,SE,132,2.0,2.0,39,0.00,,,0.00,Wunderground v.1.15,2013-01-23 21:40:00,
2013-01-23 16:50:00,43.6,20.8,30.23,SSE,161,2.0,2.0,40,0.00,,,0.00,Wunderground v.1.15,2013-01-23 21:50:00,
2013-01-23 17:00:00,43.3,21.1,30.22,SE,136,3.0,3.0,41,0.00,,,0.00,Wunderground v.1.15,2013-01-23 22:00:00,
2013-01-23 17:10:00,43.1,21.5,30.22,ESE,112,3.0,3.0,42,0.00,,,0.00,Wunderground v.1.15,2013-01-23 22:10:00,
2013-01-23 17:15:00,43.1,22.1,30.22,SE,140,2.0,3.0,43,0.00,,,0.00,Wunderground v.1.15,2013-01-23 22:15:00,
2013-01-23 17:25:00,42.8,22.4,30.23,South,182,1.0,2.0,44,0.00,,,0.00,Wunderground v.1.15,2013-01-23 22:25:00,
2013-01-23 17:35:00,42.4,24.1,30.22,SE,146,1.0,2.0,48,0.00,,,0.00,Wunderground v.1.15,2013-01-23 22:35:00,
2013-01-23 17:40:00,42.2,23.4,30.22,SE,146,1.0,1.0,47,0.00,,,0.00,Wunderground v.1.15,2013-01-23 22:40:00,
2013-01-23 17:50:00,41.7,23.9,30.22,SE,146,0.0,0.0,49,0.00,,,0.00,Wunderground v.1.15,2013-01-23 22:50:00,
2013-01-23 18:00:00,41.1,25.3,30.22,SE,146,0.0,0.0,53,0.00,,,0.00,Wunderground v.1.15,2013-01-23 23:00:00,
2013-01-23 18:10:00,40.4,25.5,30.22,SE,146,0.0,0.0,55,0.00,,,0.00,Wunderground v.1.15,2013-01-23 23:10:00,
2013-01-23 18:15:00,39.9,25.5,30.22,SE,146,0.0,0.0,56,0.00,,,0.00,Wunderground v.1.15,2013-01-23 23:15:00,
2013-01-23 18:25:00,39.2,25.6,30.22,SE,146,0.0,0.0,58,0.00,,,0.00,Wunderground v.1.15,2013-01-23 23:25:00,
2013-01-23 18:35:00,38.5,25.8,30.22,SE,146,0.0,0.0,60,0.00,,,0.00,Wunderground v.1.15,2013-01-23 23:35:00,
2013-01-23 18:40:00,38.2,25.5,30.22,SE,146,0.0,0.0,60,0.00,,,0.00,Wunderground v.1.15,2013-01-23 23:40:00,
2013-01-23 18:50:00,37.6,25.7,30.22,SE,146,0.0,0.0,62,0.00,,,0.00,Wunderground v.1.15,2013-01-23 23:50:00,
2013-01-23 18:55:00,37.3,25.5,30.22,SE,146,0.0,0.0,62,0.00,,,0.00,Wunderground v.1.15,2013-01-23 23:55:00,
2013-01-23 19:00:00,37.0,25.9,30.21,SE,146,0.0,0.0,64,0.00,,,0.00,Wunderground v.1.15,2013-01-24 00:00:00,
2013-01-23 19:10:00,36.5,25.8,30.21,SE,146,0.0,0.0,65,0.00,,,0.00,Wunderground v.1.15,2013-01-24 00:10:00,
2013-01-23 19:15:00,36.3,26.4,30.21,SE,146,0.0,0.0,67,0.00,,,0.00,Wunderground v.1.15,2013-01-24 00:15:00,
2013-01-23 19:25:00,36.0,26.5,30.21,SE,146,0.0,0.0,68,0.00,,,0.00,Wunderground v.1.15,2013-01-24 00:25:00,
2013-01-23 19:35:00,35.8,27.0,30.20,SE,146,0.0,0.0,70,0.00,,,0.00,Wunderground v.1.15,2013-01-24 00:35:00,
2013-01-23 19:40:00,35.8,27.3,30.20,SE,146,0.0,0.0,71,0.00,,,0.00,Wunderground v.1.15,2013-01-24 00:40:00,
2013-01-23 19:50:00,35.9,27.7,30.20,SE,146,0.0,0.0,72,0.00,,,0.00,Wunderground v.1.15,2013-01-24 00:50:00,
2013-01-23 19:55:00,35.9,28.4,30.19,SE,146,0.0,0.0,74,0.00,,,0.00,Wunderground v.1.15,2013-01-24 00:55:00,
2013-01-23 20:05:00,35.8,28.0,30.19,SE,146,0.0,0.0,73,0.00,,,0.00,Wunderground v.1.15,2013-01-24 01:05:00,
2013-01-23 20:15:00,35.7,27.9,30.19,SE,146,0.0,0.0,73,0.00,,,0.00,Wunderground v.1.15,2013-01-24 01:15:00,
2013-01-23 20:20:00,35.6,27.8,30.19,SE,146,0.0,0.0,73,0.00,,,0.00,Wunderground v.1.15,2013-01-24 01:20:00,
2013-01-23 20:30:00,35.5,27.7,30.19,SE,146,0.0,0.0,73,0.00,,,0.00,Wunderground v.1.15,2013-01-24 01:30:00,
2013-01-23 20:40:00,35.3,28.5,30.18,SE,146,0.0,0.0,76,0.00,,,0.00,Wunderground v.1.15,2013-01-24 01:40:00,
2013-01-23 20:45:00,35.2,28.1,30.18,SE,146,0.0,0.0,75,0.00,,,0.00,Wunderground v.1.15,2013-01-24 01:45:00,
2013-01-23 20:55:00,34.9,27.5,30.18,SE,146,0.0,0.0,74,0.00,,,0.00,Wunderground v.1.15,2013-01-24 01:55:00,
2013-01-23 21:00:00,34.8,27.7,30.17,SE,146,0.0,0.0,75,0.00,,,0.00,Wunderground v.1.15,2013-01-24 02:00:00,
2013-01-23 21:10:00,34.7,28.2,30.17,SE,146,0.0,0.0,77,0.00,,,0.00,Wunderground v.1.15,2013-01-24 02:10:00,
2013-01-23 21:15:00,34.7,28.9,30.17,SSE,161,0.0,0.0,79,0.00,,,0.00,Wunderground v.1.15,2013-01-24 02:15:00,
2013-01-23 21:25:00,34.7,28.5,30.17,SSE,161,0.0,0.0,78,0.00,,,0.00,Wunderground v.1.15,2013-01-24 02:25:00,
2013-01-23 21:30:00,34.8,29.3,30.17,SSE,161,0.0,0.0,80,0.00,,,0.00,Wunderground v.1.15,2013-01-24 02:30:00,
2013-01-23 21:40:00,34.9,29.7,30.17,SSE,161,0.0,0.0,81,0.00,,,0.00,Wunderground v.1.15,2013-01-24 02:40:00,
2013-01-23 21:50:00,35.1,30.5,30.17,SSE,161,0.0,0.0,83,0.00,,,0.00,Wunderground v.1.15,2013-01-24 02:50:00,
2013-01-23 21:55:00,35.2,30.3,30.17,SSE,161,0.0,0.0,82,0.00,,,0.00,Wunderground v.1.15,2013-01-24 02:55:00,
2013-01-23 22:05:00,35.1,30.2,30.16,SSE,161,0.0,0.0,82,0.00,,,0.00,Wunderground v.1.15,2013-01-24 03:05:00,
2013-01-23 22:15:00,35.0,30.1,30.16,SSE,161,0.0,0.0,82,0.00,,,0.00,Wunderground v.1.15,2013-01-24 03:15:00,
2013-01-23 22:25:00,35.0,30.7,30.16,SSE,161,0.0,0.0,84,0.00,,,0.00,Wunderground v.1.15,2013-01-24 03:25:00,
2013-01-23 22:35:00,36.0,32.2,30.15,South,181,0.0,0.0,86,0.00,,,0.00,Wunderground v.1.15,2013-01-24 03:35:00,
2013-01-23 22:45:00,38.0,33.6,30.14,South,179,1.0,2.0,84,0.00,,,0.00,Wunderground v.1.15,2013-01-24 03:45:00,
2013-01-23 22:50:00,38.9,33.9,30.14,South,180,1.0,2.0,82,0.00,,,0.00,Wunderground v.1.15,2013-01-24 03:50:00,
2013-01-23 23:00:00,40.8,34.8,30.13,SSW,198,2.0,2.0,79,0.00,,,0.00,Wunderground v.1.15,2013-01-24 04:00:00,
2013-01-23 23:10:00,41.6,34.9,30.13,SSE,165,1.0,3.0,77,0.00,,,0.00,Wunderground v.1.15,2013-01-24 04:10:00,
2013-01-23 23:20:00,42.1,35.1,30.12,WSW,249,1.0,1.0,76,0.00,,,0.00,Wunderground v.1.15,2013-01-24 04:20:00,
2013-01-23 23:25:00,42.2,35.2,30.12,SW,220,2.0,2.0,76,0.00,,,0.00,Wunderground v.1.15,2013-01-24 04:25:00,
2013-01-23 23:35:00,42.3,35.3,30.12,SW,215,1.0,1.0,76,0.00,,,0.00,Wunderground v.1.15,2013-01-24 04:35:00,
2013-01-23 23:40:00,42.2,35.2,30.12,SW,222,1.0,2.0,76,0.00,,,0.00,Wunderground v.1.15,2013-01-24 04:40:00,
2013-01-23 23:50:00,42.0,35.3,30.11,SW,223,1.0,3.0,77,0.00,,,0.00,Wunderground v.1.15,2013-01-24 04:50:00,
2013-01-23 23:55:00,42.0,35.3,30.11,South,190,1.0,3.0,77,0.00,,,0.00,Wunderground v.1.15,2013-01-24 04:55:00,